createdAt,value
2018-05-31T00:00:14.089Z,100117.78
2018-05-31T00:02:44.839Z,100106.70
2018-05-31T00:05:14.185Z,100111.19
2018-05-31T00:07:43.518Z,100116.02
2018-05-31T00:10:12.846Z,100114.50
2018-05-31T00:12:42.709Z,100114.87
2018-05-31T00:15:12.065Z,100120.23
2018-05-31T00:17:42.182Z,100122.66
2018-05-31T00:20:11.505Z,100125.05
2018-05-31T00:22:41.646Z,100122.29
2018-05-31T00:25:11.047Z,100119.60
2018-05-31T00:27:40.303Z,100121.13
2018-05-31T00:30:09.642Z,100126.16
2018-05-31T00:32:39.730Z,100128.42
2018-05-31T00:35:09.058Z,100131.55
2018-05-31T00:37:39.145Z,100132.22
2018-05-31T00:40:08.494Z,100128.64
2018-05-31T00:42:38.603Z,100120.72
2018-05-31T00:45:08.729Z,100124.24
2018-05-31T00:47:38.859Z,100123.30
2018-05-31T00:50:08.964Z,100120.70
2018-05-31T00:52:39.033Z,100121.83
2018-05-31T00:55:08.336Z,100120.44
2018-05-31T00:57:37.688Z,100128.94
2018-05-31T01:00:07.018Z,100134.23
2018-05-31T01:02:36.380Z,100126.91
2018-05-31T01:05:05.706Z,100125.88
2018-05-31T01:07:35.797Z,100115.52
2018-05-31T01:10:05.157Z,100121.26
2018-05-31T01:12:34.516Z,100118.59
2018-05-31T01:15:03.861Z,100129.92
2018-05-31T01:17:33.161Z,100135.03
2018-05-31T01:20:02.494Z,100128.98
2018-05-31T01:22:31.836Z,100135.63
2018-05-31T01:25:01.381Z,100131.70
2018-05-31T01:27:30.717Z,100131.70
2018-05-31T01:30:00.043Z,100124.51
2018-05-31T01:32:29.347Z,100124.17
2018-05-31T01:34:58.696Z,100123.26
2018-05-31T01:37:28.017Z,100122.09
2018-05-31T01:39:57.374Z,100119.94
2018-05-31T01:42:26.716Z,100126.06
2018-05-31T01:44:56.046Z,100127.08
2018-05-31T01:47:26.065Z,100121.28
2018-05-31T01:49:55.363Z,100125.58
2018-05-31T01:52:24.718Z,100123.95
2018-05-31T01:54:54.026Z,100122.05
2018-05-31T01:57:23.350Z,100116.34
2018-05-31T01:59:52.665Z,100120.38
2018-05-31T02:02:22.014Z,100116.56
2018-05-31T02:04:52.109Z,100118.33
2018-05-31T02:07:21.612Z,100117.52
2018-05-31T02:09:50.977Z,100119.00
2018-05-31T02:12:20.289Z,100118.57
2018-05-31T02:14:49.625Z,100120.55
2018-05-31T02:17:18.974Z,100122.59
2018-05-31T02:19:48.272Z,100125.48
2018-05-31T02:22:17.632Z,100125.83
2018-05-31T02:24:46.977Z,100121.23
2018-05-31T02:27:16.326Z,100118.97
2018-05-31T02:29:45.688Z,100118.18
2018-05-31T02:32:14.994Z,100114.38
2018-05-31T02:34:44.352Z,100114.97
2018-05-31T02:37:13.713Z,100119.27
2018-05-31T02:39:43.040Z,100112.60
2018-05-31T02:42:12.379Z,100108.69
2018-05-31T02:44:42.502Z,100104.31
2018-05-31T02:47:12.649Z,100099.78
2018-05-31T02:49:42.764Z,100098.59
2018-05-31T02:52:12.101Z,100095.70
2018-05-31T02:54:41.473Z,100101.77
2018-05-31T02:57:10.802Z,100105.80
2018-05-31T02:59:40.142Z,100107.09
2018-05-31T03:02:09.477Z,100103.35
2018-05-31T03:04:38.805Z,100112.78
2018-05-31T03:07:08.119Z,100108.06
2018-05-31T03:09:37.475Z,100107.91
2018-05-31T03:12:07.612Z,100107.28
2018-05-31T03:14:36.946Z,100106.58
2018-05-31T03:17:06.264Z,100110.68
2018-05-31T03:19:35.597Z,100107.36
2018-05-31T03:22:05.674Z,100107.42
2018-05-31T03:24:35.047Z,100106.14
2018-05-31T03:27:04.371Z,100111.81
2018-05-31T03:29:33.725Z,100109.00
2018-05-31T03:32:03.826Z,100107.57
2018-05-31T03:34:33.180Z,100105.11
2018-05-31T03:37:02.546Z,100109.77
2018-05-31T03:39:31.867Z,100117.72
2018-05-31T03:42:01.997Z,100121.52
2018-05-31T03:44:31.324Z,100128.35
2018-05-31T03:47:00.669Z,100145.61
2018-05-31T03:49:29.990Z,100140.84
2018-05-31T03:52:00.099Z,100136.85
2018-05-31T03:54:29.461Z,100142.04
2018-05-31T03:56:58.821Z,100148.75
2018-05-31T03:59:28.906Z,100148.63
2018-05-31T04:01:58.261Z,100147.36
2018-05-31T04:04:27.620Z,100152.94
2018-05-31T04:06:56.961Z,100158.59
2018-05-31T04:09:27.091Z,100155.94
2018-05-31T04:11:56.450Z,100154.66
2018-05-31T04:14:25.797Z,100156.84
2018-05-31T04:16:55.136Z,100152.70
2018-05-31T04:19:24.466Z,100154.31
2018-05-31T04:21:53.808Z,100153.41
2018-05-31T04:24:23.131Z,100152.93
2018-05-31T04:26:52.474Z,100161.31
2018-05-31T04:29:21.799Z,100161.58
2018-05-31T04:31:51.153Z,100173.02
2018-05-31T04:34:20.514Z,100171.40
2018-05-31T04:36:49.850Z,100174.14
2018-05-31T04:39:19.181Z,100181.36
2018-05-31T04:41:48.503Z,100183.73
2018-05-31T04:44:18.595Z,100181.48
2018-05-31T04:46:47.933Z,100181.34
2018-05-31T04:49:18.037Z,100191.31
2018-05-31T04:51:47.371Z,100188.11
2018-05-31T04:54:16.725Z,100188.70
2018-05-31T04:56:46.009Z,100186.77
2018-05-31T04:59:15.392Z,100184.53
2018-05-31T05:01:44.707Z,100183.55
2018-05-31T05:04:14.796Z,100179.09
2018-05-31T05:06:44.921Z,100189.82
2018-05-31T05:09:14.256Z,100190.30
2018-05-31T05:11:43.592Z,100191.31
2018-05-31T05:14:12.938Z,100192.63
2018-05-31T05:16:42.287Z,100197.08
2018-05-31T05:19:11.598Z,100190.80
2018-05-31T05:21:40.929Z,100185.92
2018-05-31T05:24:11.042Z,100191.05
2018-05-31T05:26:40.361Z,100196.80
2018-05-31T05:29:10.457Z,100192.63
2018-05-31T05:31:39.806Z,100188.05
2018-05-31T05:34:09.145Z,100188.58
2018-05-31T05:36:38.509Z,100194.38
2018-05-31T05:39:07.985Z,100189.11
2018-05-31T05:41:38.089Z,100184.20
2018-05-31T05:44:07.694Z,100182.38
2018-05-31T05:46:37.034Z,100184.88
2018-05-31T05:49:06.382Z,100188.96
2018-05-31T05:51:35.712Z,100187.47
2018-05-31T05:54:05.034Z,100199.14
2018-05-31T05:56:35.145Z,100188.55
2018-05-31T05:59:05.213Z,100189.30
2018-05-31T06:01:34.557Z,100193.64
2018-05-31T06:04:03.896Z,100189.37
2018-05-31T06:06:33.211Z,100188.42
2018-05-31T06:09:02.550Z,100185.63
2018-05-31T06:11:31.885Z,100189.73
2018-05-31T06:14:01.965Z,100190.98
2018-05-31T06:16:31.329Z,100203.64
2018-05-31T06:19:00.698Z,100203.55
2018-05-31T06:21:29.983Z,100208.91
2018-05-31T06:23:59.315Z,100214.80
2018-05-31T06:26:29.514Z,100215.50
2018-05-31T06:28:59.525Z,100214.05
2018-05-31T06:31:28.875Z,100214.77
2018-05-31T06:33:59.035Z,100214.41
2018-05-31T06:36:28.371Z,100215.64
2018-05-31T06:38:57.704Z,100217.50
2018-05-31T06:41:27.097Z,100213.14
2018-05-31T06:43:57.230Z,100212.01
2018-05-31T06:46:27.307Z,100225.42
2018-05-31T06:48:56.638Z,100235.75
2018-05-31T06:51:25.952Z,100233.41
2018-05-31T06:53:56.049Z,100235.59
2018-05-31T06:56:25.359Z,100240.59
2018-05-31T06:58:54.712Z,100246.27
2018-05-31T07:01:24.031Z,100252.77
2018-05-31T07:03:53.365Z,100254.05
2018-05-31T07:06:22.694Z,100246.97
2018-05-31T07:08:52.780Z,100248.64
2018-05-31T07:11:22.281Z,100251.78
2018-05-31T07:13:51.585Z,100250.05
2018-05-31T07:16:20.908Z,100240.63
2018-05-31T07:18:51.000Z,100240.56
2018-05-31T07:21:20.351Z,100249.00
2018-05-31T07:23:50.429Z,100251.81
2018-05-31T07:26:19.758Z,100252.50
2018-05-31T07:28:49.865Z,100251.73
2018-05-31T07:31:19.283Z,100245.31
2018-05-31T07:33:48.605Z,100245.88
2018-05-31T07:36:17.956Z,100252.03
2018-05-31T07:38:47.295Z,100260.98
2018-05-31T07:41:16.594Z,100248.34
2018-05-31T07:43:46.682Z,100248.13
2018-05-31T07:46:16.038Z,100245.50
2018-05-31T07:48:46.139Z,100249.45
2018-05-31T07:51:15.449Z,100251.65
2018-05-31T07:53:45.538Z,100252.35
2018-05-31T07:56:14.858Z,100249.65
2018-05-31T07:58:44.178Z,100252.59
2018-05-31T08:01:14.277Z,100261.11
2018-05-31T08:03:43.599Z,100259.45
2018-05-31T08:06:16.930Z,100250.83
2018-05-31T08:08:46.260Z,100250.75
2018-05-31T08:11:15.629Z,100243.89
2018-05-31T08:13:45.030Z,100242.23
2018-05-31T08:16:14.337Z,100245.00
2018-05-31T08:18:43.655Z,100246.09
2018-05-31T08:21:12.974Z,100249.73
2018-05-31T08:23:42.323Z,100252.31
2018-05-31T08:26:12.412Z,100254.48
2018-05-31T08:28:41.767Z,100256.25
2018-05-31T08:31:11.083Z,100259.70
2018-05-31T08:33:40.391Z,100255.87
2018-05-31T08:36:09.715Z,100259.66
2018-05-31T08:38:39.043Z,100260.66
2018-05-31T08:41:09.168Z,100254.89
2018-05-31T08:43:39.260Z,100258.82
2018-05-31T08:46:08.605Z,100258.22
2018-05-31T08:48:37.945Z,100254.91
2018-05-31T08:51:07.351Z,100256.19
2018-05-31T08:53:36.619Z,100257.91
2018-05-31T08:56:05.945Z,100260.19
2018-05-31T08:58:35.265Z,100260.28
2018-05-31T09:01:04.649Z,100260.81
2018-05-31T09:03:33.970Z,100263.32
2018-05-31T09:06:03.326Z,100255.86
2018-05-31T09:08:33.417Z,100264.46
2018-05-31T09:11:02.783Z,100257.13
2018-05-31T09:13:32.143Z,100264.56
2018-05-31T09:16:01.511Z,100263.04
2018-05-31T09:18:30.834Z,100265.10
2018-05-31T09:21:00.164Z,100267.10
2018-05-31T09:23:29.492Z,100258.30
2018-05-31T09:25:58.800Z,100263.09
2018-05-31T09:28:28.175Z,100261.97
2018-05-31T09:30:58.286Z,100262.24
2018-05-31T09:33:28.420Z,100260.34
2018-05-31T09:35:58.506Z,100259.16
2018-05-31T09:38:27.875Z,100254.11
2018-05-31T09:40:57.173Z,100257.36
2018-05-31T09:43:26.567Z,100252.98
2018-05-31T09:45:55.872Z,100255.66
2018-05-31T09:48:25.214Z,100249.89
2018-05-31T09:50:54.573Z,100256.52
2018-05-31T09:53:23.898Z,100249.91
2018-05-31T09:55:53.251Z,100256.13
2018-05-31T09:58:23.388Z,100253.81
2018-05-31T10:00:52.725Z,100248.45
2018-05-31T10:03:22.150Z,100249.00
2018-05-31T10:05:51.530Z,100247.08
2018-05-31T10:08:20.894Z,100249.23
2018-05-31T10:10:50.295Z,100245.89
2018-05-31T10:13:19.706Z,100244.42
2018-05-31T10:15:49.800Z,100240.83
2018-05-31T10:18:19.146Z,100237.41
2018-05-31T10:20:48.497Z,100243.05
2018-05-31T10:23:17.832Z,100232.59
2018-05-31T10:25:47.901Z,100241.22
2018-05-31T10:28:17.303Z,100242.21
2018-05-31T10:30:46.614Z,100239.30
2018-05-31T10:33:15.956Z,100232.59
2018-05-31T10:35:46.056Z,100235.69
2018-05-31T10:38:15.433Z,100232.17
2018-05-31T10:40:44.761Z,100232.63
2018-05-31T10:43:14.071Z,100226.80
2018-05-31T10:45:43.396Z,100224.89
2018-05-31T10:48:13.553Z,100223.74
2018-05-31T10:50:42.866Z,100224.41
2018-05-31T10:53:12.192Z,100214.52
2018-05-31T10:55:41.545Z,100223.14
2018-05-31T10:58:10.899Z,100216.45
2018-05-31T11:00:40.253Z,100205.68
2018-05-31T11:03:09.595Z,100213.47
2018-05-31T11:05:38.916Z,100207.84
2018-05-31T11:08:08.264Z,100205.22
2018-05-31T11:10:37.583Z,100204.28
2018-05-31T11:13:06.898Z,100199.52
2018-05-31T11:15:36.893Z,100194.06
2018-05-31T11:18:06.224Z,100196.06
2018-05-31T11:20:35.538Z,100186.64
2018-05-31T11:23:04.864Z,100188.11
2018-05-31T11:25:34.186Z,100189.94
2018-05-31T11:28:03.520Z,100193.25
2018-05-31T11:30:32.844Z,100195.95
2018-05-31T11:33:02.190Z,100201.82
2018-05-31T11:35:32.265Z,100200.06
2018-05-31T11:38:01.817Z,100197.41
2018-05-31T11:40:31.890Z,100197.10
2018-05-31T11:43:01.198Z,100197.61
2018-05-31T11:45:30.538Z,100191.92
2018-05-31T11:48:00.613Z,100192.38
2018-05-31T11:50:29.918Z,100188.29
2018-05-31T11:52:59.257Z,100192.42
2018-05-31T11:55:29.344Z,100196.13
2018-05-31T11:57:58.684Z,100200.92
2018-05-31T12:00:28.790Z,100187.83
2018-05-31T12:02:58.109Z,100194.08
2018-05-31T12:05:28.216Z,100190.73
2018-05-31T12:07:58.627Z,100196.37
2018-05-31T12:10:27.971Z,100198.08
2018-05-31T12:12:58.086Z,100188.40
2018-05-31T12:15:28.163Z,100182.63
2018-05-31T12:17:58.350Z,100178.52
2018-05-31T12:20:27.661Z,100177.61
2018-05-31T12:22:56.982Z,100176.52
2018-05-31T12:25:26.314Z,100173.05
2018-05-31T12:27:55.669Z,100172.23
2018-05-31T12:30:24.956Z,100171.63
2018-05-31T12:32:54.281Z,100177.34
2018-05-31T12:35:23.633Z,100179.83
2018-05-31T12:37:52.945Z,100185.39
2018-05-31T12:40:23.025Z,100190.29
2018-05-31T12:42:52.426Z,100191.45
2018-05-31T12:45:21.733Z,100191.16
2018-05-31T12:47:51.053Z,100179.34
2018-05-31T12:50:22.318Z,100187.86
2018-05-31T12:52:51.798Z,100184.13
2018-05-31T12:55:21.133Z,100182.14
2018-05-31T12:57:51.186Z,100190.63
2018-05-31T13:00:20.518Z,100179.21
2018-05-31T13:02:49.843Z,100173.22
2018-05-31T13:05:19.149Z,100178.53
2018-05-31T13:07:48.489Z,100187.19
2018-05-31T13:10:17.805Z,100187.36
2018-05-31T13:12:47.141Z,100179.34
2018-05-31T13:15:16.490Z,100177.95
2018-05-31T13:17:45.802Z,100181.36
2018-05-31T13:20:15.129Z,100184.45
2018-05-31T13:22:44.679Z,100190.02
2018-05-31T13:25:14.941Z,100199.34
2018-05-31T13:27:45.361Z,100202.14
2018-05-31T13:30:15.788Z,100209.52
2018-05-31T13:32:45.134Z,100204.84
2018-05-31T13:35:14.678Z,100200.36
2018-05-31T13:37:44.770Z,100193.63
2018-05-31T13:40:14.111Z,100198.65
2018-05-31T13:42:44.193Z,100207.52
2018-05-31T13:45:13.530Z,100207.63
2018-05-31T13:47:42.844Z,100206.89
2018-05-31T13:50:12.165Z,100214.88
2018-05-31T13:52:41.476Z,100222.40
2018-05-31T13:55:10.833Z,100216.48
2018-05-31T13:57:40.898Z,100210.78
2018-05-31T14:00:10.869Z,100197.09
2018-05-31T14:02:40.940Z,100212.38
2018-05-31T14:05:10.291Z,100214.73
2018-05-31T14:07:39.602Z,100202.87
2018-05-31T14:10:09.694Z,100196.77
2018-05-31T14:12:39.037Z,100188.39
2018-05-31T14:15:09.114Z,100193.67
2018-05-31T14:17:38.440Z,100201.50
2018-05-31T14:20:08.527Z,100205.05
2018-05-31T14:22:37.837Z,100195.39
2018-05-31T14:25:07.170Z,100189.16
2018-05-31T14:27:37.234Z,100187.04
2018-05-31T14:30:06.548Z,100186.35
2018-05-31T14:32:35.889Z,100195.88
2018-05-31T14:35:05.207Z,100190.73
2018-05-31T14:37:35.288Z,100188.98
2018-05-31T14:40:04.599Z,100187.71
2018-05-31T14:42:33.948Z,100188.38
2018-05-31T14:45:03.271Z,100188.80
2018-05-31T14:47:32.575Z,100195.89
2018-05-31T14:50:01.919Z,100200.63
2018-05-31T14:52:31.250Z,100200.19
2018-05-31T14:55:01.347Z,100202.55
2018-05-31T14:57:30.666Z,100199.19
2018-05-31T15:00:00.753Z,100205.53
2018-05-31T15:02:30.095Z,100197.04
2018-05-31T15:05:00.234Z,100203.12
2018-05-31T15:07:29.540Z,100200.89
2018-05-31T15:09:58.879Z,100186.67
2018-05-31T15:12:28.197Z,100187.80
2018-05-31T15:14:57.486Z,100192.29
2018-05-31T15:17:26.810Z,100193.49
2018-05-31T15:19:56.908Z,100198.44
2018-05-31T15:22:26.236Z,100199.25
2018-05-31T15:24:56.327Z,100198.33
2018-05-31T15:27:25.640Z,100197.61
2018-05-31T15:29:54.938Z,100197.17
2018-05-31T15:32:24.253Z,100193.88
2018-05-31T15:34:53.577Z,100194.86
2018-05-31T15:37:23.673Z,100185.34
2018-05-31T15:39:52.985Z,100182.66
2018-05-31T15:42:22.320Z,100180.48
2018-05-31T15:44:51.657Z,100176.19
2018-05-31T15:47:20.950Z,100169.78
2018-05-31T15:49:50.274Z,100167.91
2018-05-31T15:52:20.362Z,100168.93
2018-05-31T15:54:50.891Z,100180.73
2018-05-31T15:57:20.229Z,100173.77
2018-05-31T15:59:49.529Z,100163.31
2018-05-31T16:02:20.146Z,100156.48
2018-05-31T16:04:49.470Z,100153.13
2018-05-31T16:07:18.795Z,100151.66
2018-05-31T16:09:48.120Z,100153.41
2018-05-31T16:12:17.456Z,100152.64
2018-05-31T16:14:46.788Z,100153.13
2018-05-31T16:17:16.096Z,100157.05
2018-05-31T16:19:45.415Z,100163.17
2018-05-31T16:22:15.469Z,100163.57
2018-05-31T16:24:44.793Z,100161.57
2018-05-31T16:27:14.115Z,100157.16
2018-05-31T16:29:43.421Z,100161.95
2018-05-31T16:32:12.747Z,100153.93
2018-05-31T16:34:42.858Z,100152.55
2018-05-31T16:37:12.168Z,100152.72
2018-05-31T16:39:42.249Z,100149.78
2018-05-31T16:42:11.592Z,100146.14
2018-05-31T16:44:41.710Z,100153.52
2018-05-31T16:47:11.801Z,100166.58
2018-05-31T16:49:41.120Z,100165.20
2018-05-31T16:52:10.461Z,100160.84
2018-05-31T16:54:39.786Z,100154.71
2018-05-31T16:57:09.116Z,100154.72
2018-05-31T16:59:38.423Z,100155.64
2018-05-31T17:02:07.768Z,100152.20
2018-05-31T17:04:37.119Z,100152.02
2018-05-31T17:07:06.440Z,100158.72
2018-05-31T17:09:35.787Z,100153.80
2018-05-31T17:12:05.098Z,100155.77
2018-05-31T17:14:34.980Z,100159.98
2018-05-31T17:17:06.129Z,100160.18
2018-05-31T17:19:35.466Z,100165.63
2018-05-31T17:22:04.795Z,100167.22
2018-05-31T17:24:34.134Z,100161.30
2018-05-31T17:27:04.246Z,100164.30
2018-05-31T17:29:34.348Z,100163.27
2018-05-31T17:32:03.696Z,100163.46
2018-05-31T17:34:33.038Z,100173.44
2018-05-31T17:37:02.361Z,100172.78
2018-05-31T17:39:31.695Z,100164.08
2018-05-31T17:42:01.016Z,100171.49
2018-05-31T17:44:30.340Z,100173.45
2018-05-31T17:46:59.682Z,100170.16
2018-05-31T17:49:29.017Z,100168.33
2018-05-31T17:51:58.349Z,100172.91
2018-05-31T17:54:27.666Z,100174.38
2018-05-31T17:56:56.975Z,100173.02
2018-05-31T17:59:26.310Z,100177.92
2018-05-31T18:02:02.343Z,100180.05
2018-05-31T18:04:33.209Z,100179.48
2018-05-31T18:07:03.316Z,100186.27
2018-05-31T18:09:32.631Z,100189.81
2018-05-31T18:12:02.558Z,100184.01
2018-05-31T18:14:31.862Z,100191.38
2018-05-31T18:17:01.191Z,100197.21
2018-05-31T18:19:30.494Z,100197.03
2018-05-31T18:21:59.836Z,100204.53
2018-05-31T18:24:29.149Z,100206.97
2018-05-31T18:26:58.473Z,100213.39
2018-05-31T18:29:28.591Z,100216.34
2018-05-31T18:31:58.668Z,100216.00
2018-05-31T18:34:27.987Z,100212.87
2018-05-31T18:36:57.305Z,100208.81
2018-05-31T18:39:27.376Z,100203.48
2018-05-31T18:41:56.766Z,100187.62
2018-05-31T18:44:26.088Z,100197.05
2018-05-31T18:46:55.441Z,100200.70
2018-05-31T18:49:24.816Z,100201.19
2018-05-31T18:51:54.878Z,100205.20
2018-05-31T18:54:24.212Z,100203.20
2018-05-31T18:56:53.537Z,100195.20
2018-05-31T18:59:22.829Z,100191.19
2018-05-31T19:01:52.183Z,100184.85
2018-05-31T19:04:22.247Z,100182.41
2018-05-31T19:06:51.605Z,100190.00
2018-05-31T19:09:27.162Z,100184.51
2018-05-31T19:11:56.504Z,100189.56
2018-05-31T19:14:25.844Z,100177.44
2018-05-31T19:16:55.933Z,100183.17
2018-05-31T19:19:30.803Z,100185.02
2018-05-31T19:22:00.115Z,100193.20
2018-05-31T19:24:35.619Z,100195.23
2018-05-31T19:27:04.941Z,100198.25
2018-05-31T19:29:34.295Z,100204.43
2018-05-31T19:32:03.625Z,100206.20
2018-05-31T19:34:32.984Z,100209.89
2018-05-31T19:37:08.443Z,100215.84
2018-05-31T19:39:37.811Z,100216.83
2018-05-31T19:45:07.648Z,100229.50
2018-05-31T19:47:37.741Z,100235.35
2018-05-31T19:50:07.045Z,100239.19
2018-05-31T19:52:41.705Z,100242.73
2018-05-31T19:55:11.769Z,100245.53
2018-05-31T19:57:46.610Z,100253.14
2018-05-31T20:00:21.201Z,100253.48
2018-05-31T20:02:55.956Z,100253.70
2018-05-31T20:05:25.256Z,100265.61
2018-05-31T20:07:54.583Z,100271.27
2018-05-31T20:10:23.891Z,100264.89
2018-05-31T20:12:54.721Z,100266.75
2018-05-31T20:15:24.062Z,100267.08
2018-05-31T20:17:54.128Z,100264.95
2018-05-31T20:20:23.436Z,100268.76
2018-05-31T20:22:52.773Z,100261.45
2018-05-31T20:25:22.069Z,100267.62
2018-05-31T20:27:51.393Z,100277.17
2018-05-31T20:30:22.391Z,100283.64
2018-05-31T20:32:51.734Z,100280.62
2018-05-31T20:35:21.048Z,100268.77
2018-05-31T20:37:51.147Z,100279.80
2018-05-31T20:40:20.483Z,100287.70
2018-05-31T20:42:49.805Z,100279.66
2018-05-31T20:45:19.109Z,100281.75
2018-05-31T20:47:48.432Z,100275.13
2018-05-31T20:50:17.735Z,100270.06
2018-05-31T20:52:47.049Z,100266.69
2018-05-31T20:55:16.390Z,100267.47
2018-05-31T20:57:46.490Z,100259.83
2018-05-31T21:00:15.813Z,100253.37
2018-05-31T21:02:45.919Z,100256.47
2018-05-31T21:05:15.255Z,100246.85
2018-05-31T21:07:44.583Z,100250.62
2018-05-31T21:10:13.904Z,100255.03
2018-05-31T21:12:43.224Z,100255.75
2018-05-31T21:15:12.533Z,100255.98
2018-05-31T21:17:42.595Z,100251.61
2018-05-31T21:20:11.932Z,100248.59
2018-05-31T21:22:41.271Z,100244.34
2018-05-31T21:25:11.354Z,100253.16
2018-05-31T21:27:40.675Z,100247.58
2018-05-31T21:30:09.979Z,100243.63
2018-05-31T21:32:39.295Z,100243.00
2018-05-31T21:35:09.378Z,100238.72
2018-05-31T21:37:38.881Z,100240.02
2018-05-31T21:40:08.961Z,100239.48
2018-05-31T21:42:38.284Z,100245.30
2018-05-31T21:45:07.594Z,100245.89
2018-05-31T21:47:36.923Z,100247.73
2018-05-31T21:50:06.237Z,100241.73
2018-05-31T21:52:35.553Z,100243.36
2018-05-31T21:55:05.652Z,100243.42
2018-05-31T21:57:35.513Z,100244.61
2018-05-31T22:00:04.802Z,100248.16
2018-05-31T22:02:34.124Z,100241.28
2018-05-31T22:05:03.427Z,100244.18
2018-05-31T22:07:32.756Z,100240.00
2018-05-31T22:10:02.062Z,100254.98
2018-05-31T22:12:31.399Z,100255.20
2018-05-31T22:15:00.718Z,100248.50
2018-05-31T22:17:30.648Z,100251.98
2018-05-31T22:20:00.050Z,100251.92
2018-05-31T22:22:29.650Z,100251.88
2018-05-31T22:24:58.969Z,100249.03
2018-05-31T22:27:28.294Z,100243.55
2018-05-31T22:29:57.606Z,100239.58
2018-05-31T22:32:26.936Z,100231.69
2018-05-31T22:34:56.253Z,100236.05
2018-05-31T22:37:26.346Z,100237.33
2018-05-31T22:39:55.671Z,100230.92
2018-05-31T22:42:25.747Z,100219.70
2018-05-31T22:44:55.083Z,100219.06
2018-05-31T22:47:24.401Z,100215.38
2018-05-31T22:49:54.524Z,100220.09
2018-05-31T22:52:24.581Z,100219.03
2018-05-31T22:54:53.886Z,100212.95
2018-05-31T22:57:23.202Z,100211.50
2018-05-31T22:59:52.548Z,100214.30
2018-05-31T23:02:22.664Z,100214.45
2018-05-31T23:04:51.969Z,100213.59
2018-05-31T23:07:22.123Z,100212.03
2018-05-31T23:09:51.402Z,100210.09
2018-05-31T23:12:21.497Z,100218.61
2018-05-31T23:14:50.794Z,100217.54
2018-05-31T23:17:20.137Z,100218.88
2018-05-31T23:19:49.429Z,100211.84
2018-05-31T23:22:18.747Z,100214.25
2018-05-31T23:24:48.064Z,100211.55
2018-05-31T23:27:17.373Z,100221.05
2018-05-31T23:29:46.693Z,100223.55
2018-05-31T23:32:16.108Z,100225.58
2018-05-31T23:34:45.449Z,100228.05
2018-05-31T23:37:14.796Z,100226.00
2018-05-31T23:39:44.121Z,100221.27
2018-05-31T23:42:13.445Z,100229.24
2018-05-31T23:44:43.536Z,100240.45
2018-05-31T23:47:12.870Z,100245.38
2018-05-31T23:49:42.963Z,100246.45
2018-05-31T23:52:12.307Z,100251.30
2018-05-31T23:54:41.651Z,100246.12
2018-05-31T23:57:10.997Z,100248.44
2018-05-31T23:59:41.098Z,100241.83
